createdAt,value
2023-02-04T00:05:11.103Z,22.07
2023-02-04T00:11:13.078Z,20.97
2023-02-04T00:17:14.976Z,17.23
2023-02-04T00:23:16.874Z,23.13
2023-02-04T00:29:18.734Z,25.20
2023-02-04T00:35:21.484Z,16.33
2023-02-04T00:41:23.362Z,20.53
2023-02-04T00:47:25.283Z,6.80
2023-02-04T00:53:27.151Z,17.33
2023-02-04T00:59:29.081Z,13.70
2023-02-04T01:05:30.983Z,17.87
2023-02-04T01:11:33.402Z,11.43
2023-02-04T01:17:35.296Z,16.77
2023-02-04T01:23:37.500Z,21.57
2023-02-04T01:29:39.387Z,26.30
2023-02-04T01:35:41.271Z,20.07
2023-02-04T01:41:43.310Z,9.90
2023-02-04T01:47:46.997Z,15.83
2023-02-04T01:53:48.910Z,9.00
2023-02-04T01:59:55.392Z,16.87
2023-02-04T02:05:57.317Z,19.40
2023-02-04T02:12:01.536Z,12.80
2023-02-04T02:18:04.042Z,13.33
2023-02-04T02:24:30.101Z,9.90
2023-02-04T02:30:32.613Z,11.33
2023-02-04T02:36:34.769Z,8.93
2023-02-04T02:42:37.127Z,7.40
2023-02-04T02:48:39.009Z,12.73
2023-02-04T02:54:42.132Z,7.50
2023-02-04T03:00:44.446Z,5.70
2023-02-04T03:06:46.801Z,0.83
2023-02-04T03:12:48.860Z,2.67
2023-02-04T03:18:51.033Z,1.20
2023-02-04T03:24:53.080Z,1.73
2023-02-04T03:30:56.014Z,2.20
2023-02-04T03:36:58.058Z,1.57
2023-02-04T03:43:00.428Z,1.83
2023-02-04T03:49:02.327Z,3.57
2023-02-04T03:55:04.344Z,1.40
2023-02-04T04:01:06.268Z,1.37
2023-02-04T04:07:08.204Z,3.83
2023-02-04T04:13:10.252Z,3.07
2023-02-04T04:19:12.138Z,2.23
2023-02-04T04:25:14.067Z,2.73
2023-02-04T04:31:16.133Z,4.63
2023-02-04T04:37:18.150Z,1.93
2023-02-04T04:43:20.170Z,2.50
2023-02-04T04:49:22.141Z,1.60
2023-02-04T04:55:24.075Z,2.33
2023-02-04T05:01:25.979Z,1.77
2023-02-04T05:07:27.940Z,4.67
2023-02-04T05:13:30.265Z,6.57
2023-02-04T05:19:32.204Z,3.13
2023-02-04T05:25:34.149Z,3.40
2023-02-04T05:31:36.261Z,3.07
2023-02-04T05:37:38.165Z,1.87
2023-02-04T05:43:40.120Z,1.63
2023-02-04T05:49:42.007Z,3.33
2023-02-04T05:55:44.029Z,3.03
2023-02-04T06:01:45.911Z,1.97
2023-02-04T06:07:47.775Z,1.60
2023-02-04T06:13:49.653Z,1.70
2023-02-04T06:19:51.586Z,7.20
2023-02-04T06:25:53.454Z,2.43
2023-02-04T06:31:55.472Z,2.80
2023-02-04T06:37:58.315Z,2.00
2023-02-04T06:44:00.207Z,3.43
2023-02-04T06:50:02.127Z,2.70
2023-02-04T06:56:04.111Z,2.63
2023-02-04T07:02:07.744Z,4.00
2023-02-04T07:08:09.660Z,4.13
2023-02-04T07:14:11.583Z,11.90
2023-02-04T07:20:13.530Z,6.87
2023-02-04T07:26:15.406Z,4.77
2023-02-04T07:32:17.301Z,3.57
2023-02-04T07:38:19.183Z,3.43
2023-02-04T07:44:21.328Z,6.40
2023-02-04T07:50:23.282Z,3.13
2023-02-04T07:56:25.166Z,2.33
2023-02-04T08:02:27.451Z,4.93
2023-02-04T08:08:29.433Z,5.50
2023-02-04T08:14:31.407Z,3.17
2023-02-04T08:20:33.773Z,2.43
2023-02-04T08:26:35.732Z,3.53
2023-02-04T08:32:39.256Z,8.40
2023-02-04T08:38:41.406Z,3.93
2023-02-04T08:44:43.934Z,4.93
2023-02-04T08:50:45.820Z,3.07
2023-02-04T08:56:47.693Z,4.80
2023-02-04T09:02:49.585Z,8.97
2023-02-04T09:08:51.449Z,4.40
2023-02-04T09:14:53.351Z,5.43
2023-02-04T09:20:55.235Z,3.23
2023-02-04T09:26:57.129Z,2.63
2023-02-04T09:32:58.994Z,3.27
2023-02-04T09:39:00.876Z,2.17
2023-02-04T09:45:03.510Z,1.77
2023-02-04T09:51:07.944Z,1.27
2023-02-04T09:57:20.193Z,1.63
2023-02-04T10:03:23.275Z,1.33
2023-02-04T10:09:25.163Z,0.90
2023-02-04T10:15:28.301Z,2.67
2023-02-04T10:21:33.434Z,1.67
2023-02-04T10:27:35.376Z,2.67
2023-02-04T10:33:39.071Z,1.63
2023-02-04T10:39:44.108Z,4.87
2023-02-04T10:46:03.518Z,1.67
2023-02-04T10:52:18.333Z,1.97
2023-02-04T10:58:29.510Z,1.20
2023-02-04T11:04:31.817Z,1.73
2023-02-04T11:10:34.970Z,1.77
2023-02-04T11:16:48.727Z,1.73
2023-02-04T11:22:53.863Z,1.20
2023-02-04T11:28:57.358Z,1.80
2023-02-04T11:35:11.610Z,1.53
2023-02-04T11:41:26.958Z,1.30
2023-02-04T11:47:36.242Z,1.10
2023-02-04T11:53:38.128Z,1.50
2023-02-04T11:59:40.038Z,1.10
2023-02-04T12:05:47.238Z,1.20
2023-02-04T12:11:59.001Z,1.40
2023-02-04T12:18:10.194Z,1.23
2023-02-04T12:24:12.153Z,1.50
2023-02-04T12:30:14.401Z,1.10
2023-02-04T12:36:16.262Z,1.30
2023-02-04T12:42:18.151Z,1.20
2023-02-04T12:48:20.171Z,1.53
2023-02-04T12:54:22.077Z,1.40
2023-02-04T13:00:24.849Z,1.30
2023-02-04T13:06:26.764Z,1.03
2023-02-04T13:12:28.800Z,1.47
2023-02-04T13:18:30.891Z,1.43
2023-02-04T13:24:32.961Z,1.20
2023-02-04T13:30:34.952Z,1.93
2023-02-04T13:36:36.899Z,1.63
2023-02-04T13:42:38.808Z,4.20
2023-02-04T13:48:40.741Z,1.07
2023-02-04T13:54:42.628Z,2.13
2023-02-04T14:00:44.590Z,1.47
2023-02-04T14:06:46.587Z,1.10
2023-02-04T14:12:48.592Z,1.10
2023-02-04T14:18:50.518Z,3.83
2023-02-04T14:24:52.430Z,1.90
2023-02-04T14:30:54.915Z,2.43
2023-02-04T14:36:56.838Z,1.30
2023-02-04T14:42:58.758Z,2.47
2023-02-04T14:49:00.629Z,3.10
2023-02-04T14:55:02.592Z,1.27
2023-02-04T15:01:04.752Z,1.20
2023-02-04T15:07:06.907Z,1.10
2023-02-04T15:13:08.871Z,2.37
2023-02-04T15:19:10.979Z,1.30
2023-02-04T15:25:13.544Z,2.33
2023-02-04T15:31:15.648Z,2.20
2023-02-04T15:37:17.664Z,2.13
2023-02-04T15:43:19.900Z,1.20
2023-02-04T15:49:21.918Z,1.73
2023-02-04T15:55:23.988Z,1.13
2023-02-04T16:01:26.447Z,2.00
2023-02-04T16:07:28.333Z,1.03
2023-02-04T16:13:30.228Z,1.20
2023-02-04T16:19:32.175Z,1.30
2023-02-04T16:25:34.974Z,1.33
2023-02-04T16:31:37.065Z,3.10
2023-02-04T16:37:38.975Z,1.40
2023-02-04T16:43:40.909Z,1.00
2023-02-04T16:49:44.849Z,1.00
2023-02-04T16:55:48.223Z,5.20
2023-02-04T17:01:50.156Z,1.37
2023-02-04T17:07:52.073Z,2.00
2023-02-04T17:13:54.004Z,2.10
2023-02-04T17:19:55.964Z,1.97
2023-02-04T17:25:57.903Z,5.10
2023-02-04T17:31:59.798Z,1.83
2023-02-04T17:38:02.514Z,1.10
2023-02-04T17:44:04.792Z,1.23
2023-02-04T17:50:09.968Z,1.20
2023-02-04T17:56:13.945Z,1.47
2023-02-04T18:02:32.285Z,1.63
2023-02-04T18:08:40.553Z,1.37
2023-02-04T18:14:44.759Z,1.70
2023-02-04T18:20:50.271Z,1.23
2023-02-04T18:26:55.232Z,2.10
2023-02-04T18:32:57.368Z,4.03
2023-02-04T18:38:59.994Z,1.63
2023-02-04T18:45:25.065Z,3.93
2023-02-04T18:51:45.928Z,1.80
2023-02-04T18:57:47.806Z,2.93
2023-02-04T19:04:03.444Z,2.67
2023-02-04T19:10:28.614Z,2.10
2023-02-04T19:16:36.718Z,2.07
2023-02-04T19:22:54.217Z,22.10
2023-02-04T19:28:56.297Z,18.03
2023-02-04T19:35:11.590Z,7.33
2023-02-04T19:41:52.650Z,5.10
2023-02-04T19:47:57.118Z,8.00
2023-02-04T19:54:18.629Z,8.90
2023-02-04T20:00:46.641Z,10.87
2023-02-04T20:06:48.782Z,8.40
2023-02-04T20:12:55.959Z,7.13
2023-02-04T20:18:59.960Z,6.00
2023-02-04T20:25:47.983Z,10.60
2023-02-04T20:31:50.296Z,6.70
2023-02-04T20:37:57.472Z,3.07
2023-02-04T20:43:59.365Z,5.37
2023-02-04T20:50:01.322Z,7.67
2023-02-04T20:56:48.208Z,9.50
2023-02-04T21:02:50.131Z,4.17
2023-02-04T21:08:54.565Z,2.50
2023-02-04T21:14:56.542Z,3.37
2023-02-04T21:20:58.460Z,5.50
2023-02-04T21:27:00.387Z,6.17
2023-02-04T21:33:02.474Z,3.10
2023-02-04T21:39:05.086Z,4.60
2023-02-04T21:45:07.766Z,8.73
2023-02-04T21:51:10.238Z,4.37
2023-02-04T21:57:12.145Z,5.30
2023-02-04T22:03:17.169Z,5.80
2023-02-04T22:09:19.136Z,6.17
2023-02-04T22:15:21.638Z,6.70
2023-02-04T22:21:23.553Z,4.80
2023-02-04T22:27:25.469Z,3.90
2023-02-04T22:33:27.329Z,5.00
2023-02-04T22:39:29.531Z,6.97
2023-02-04T22:45:31.796Z,7.13
2023-02-04T22:51:34.210Z,6.10
2023-02-04T22:57:36.088Z,7.90
2023-02-04T23:03:37.961Z,8.53
2023-02-04T23:09:40.298Z,8.03
2023-02-04T23:15:42.603Z,8.90
2023-02-04T23:21:44.571Z,9.00
2023-02-04T23:27:46.882Z,6.23
2023-02-04T23:33:48.819Z,7.47
2023-02-04T23:39:50.692Z,6.47
2023-02-04T23:45:52.911Z,7.13
2023-02-04T23:51:54.873Z,6.53
2023-02-04T23:57:56.771Z,8.13
